createdAt,value
2022-12-20T00:01:46.820Z,4860.00
2022-12-20T00:06:53.909Z,4824.00
2022-12-20T00:12:01.302Z,4824.00
2022-12-20T00:17:08.436Z,4752.00
2022-12-20T00:22:15.623Z,4788.00
2022-12-20T00:27:22.905Z,4752.00
2022-12-20T00:32:30.178Z,4752.00
2022-12-20T00:37:37.675Z,5292.00
2022-12-20T00:42:46.405Z,5328.00
2022-12-20T00:47:53.565Z,-72.00
2022-12-20T00:53:00.804Z,-72.00
2022-12-20T00:58:08.108Z,-36.00
2022-12-20T01:03:15.533Z,-72.00
2022-12-20T01:08:22.593Z,-72.00
2022-12-20T01:13:29.868Z,-72.00
2022-12-20T01:18:38.230Z,-72.00
2022-12-20T01:23:45.452Z,-72.00
2022-12-20T01:28:52.795Z,-72.00
2022-12-20T01:33:59.967Z,-72.00
2022-12-20T01:39:07.127Z,-72.00
2022-12-20T01:44:14.397Z,-72.00
2022-12-20T01:49:21.550Z,-72.00
2022-12-20T01:54:28.795Z,-72.00
2022-12-20T01:59:35.995Z,-72.00
2022-12-20T02:04:43.185Z,-72.00
2022-12-20T02:09:50.436Z,-72.00
2022-12-20T02:14:59.375Z,-36.00
2022-12-20T02:20:06.528Z,-72.00
2022-12-20T02:25:13.766Z,-72.00
2022-12-20T02:30:20.991Z,-72.00
2022-12-20T02:35:28.170Z,-72.00
2022-12-20T02:40:35.366Z,-72.00
2022-12-20T02:45:42.629Z,-72.00
2022-12-20T02:50:49.827Z,-72.00
2022-12-20T02:55:57.045Z,-72.00
2022-12-20T03:01:04.582Z,-72.00
2022-12-20T03:06:11.489Z,-72.00
2022-12-20T03:11:18.700Z,-72.00
2022-12-20T03:16:26.059Z,-72.00
2022-12-20T03:21:33.125Z,-72.00
2022-12-20T03:26:40.339Z,-72.00
2022-12-20T03:31:47.567Z,-72.00
2022-12-20T03:36:54.759Z,-72.00
2022-12-20T03:42:01.947Z,-72.00
2022-12-20T03:47:09.159Z,-72.00
2022-12-20T03:52:16.359Z,-72.00
2022-12-20T03:57:25.478Z,-72.00
2022-12-20T04:02:32.893Z,-72.00
2022-12-20T04:07:39.897Z,-72.00
2022-12-20T04:12:47.076Z,-72.00
2022-12-20T04:17:54.356Z,-72.00
2022-12-20T04:23:01.553Z,-72.00
2022-12-20T04:28:08.757Z,-72.00
2022-12-20T04:33:15.954Z,-72.00
2022-12-20T04:38:23.163Z,-72.00
2022-12-20T04:43:30.362Z,-72.00
2022-12-20T04:48:56.383Z,-72.00
2022-12-20T04:53:44.909Z,-72.00
2022-12-20T04:58:52.176Z,-72.00
2022-12-20T05:03:59.453Z,-72.00
2022-12-20T05:09:06.584Z,-72.00
2022-12-20T05:14:13.797Z,-72.00
2022-12-20T05:19:21.093Z,-72.00
2022-12-20T05:24:28.305Z,-72.00
2022-12-20T05:29:35.534Z,-72.00
2022-12-20T05:34:42.798Z,-72.00
2022-12-20T05:39:49.883Z,-72.00
2022-12-20T05:44:57.052Z,-72.00
2022-12-20T05:50:04.240Z,-36.00
2022-12-20T05:55:11.394Z,-36.00
2022-12-20T06:00:18.623Z,-72.00
2022-12-20T06:05:25.853Z,-72.00
2022-12-20T06:10:33.024Z,-72.00
2022-12-20T06:15:40.212Z,-72.00
2022-12-20T06:20:47.387Z,-72.00
2022-12-20T06:25:54.519Z,-72.00
2022-12-20T06:31:01.730Z,-36.00
2022-12-20T06:36:08.976Z,-72.00
2022-12-20T06:41:16.172Z,-72.00
2022-12-20T06:46:23.429Z,-72.00
2022-12-20T06:51:30.585Z,-36.00
2022-12-20T06:56:41.444Z,-72.00
2022-12-20T07:01:45.312Z,-72.00
2022-12-20T07:06:52.219Z,-36.00
2022-12-20T07:11:59.407Z,-36.00
2022-12-20T07:17:06.687Z,-36.00
2022-12-20T07:22:13.829Z,-36.00
2022-12-20T07:27:21.002Z,-36.00
2022-12-20T07:32:28.201Z,0.00
2022-12-20T07:37:35.479Z,0.00
2022-12-20T07:42:48.239Z,36.00
2022-12-20T07:47:49.896Z,36.00
2022-12-20T07:52:57.142Z,36.00
2022-12-20T07:58:04.265Z,8532.00
2022-12-20T08:03:11.678Z,8892.00
2022-12-20T08:08:18.770Z,9540.00
2022-12-20T08:13:25.941Z,9360.00
2022-12-20T08:18:33.083Z,9432.00
2022-12-20T08:23:40.362Z,9684.00
2022-12-20T08:28:47.591Z,9504.00
2022-12-20T08:33:54.844Z,8748.00
2022-12-20T08:39:02.039Z,10980.00
2022-12-20T08:44:09.167Z,11088.00
2022-12-20T08:49:16.345Z,11592.00
2022-12-20T08:54:23.651Z,12276.00
2022-12-20T08:59:31.047Z,13176.00
2022-12-20T09:04:38.251Z,13572.00
2022-12-20T09:09:45.505Z,13428.00
2022-12-20T09:14:52.699Z,13788.00
2022-12-20T09:19:59.934Z,13788.00
2022-12-20T09:25:07.229Z,13824.00
2022-12-20T09:30:14.409Z,13824.00
2022-12-20T09:35:23.511Z,13320.00
2022-12-20T09:40:28.847Z,13320.00
2022-12-20T09:45:36.030Z,13392.00
2022-12-20T09:50:43.306Z,12816.00
2022-12-20T09:55:50.564Z,13212.00
2022-12-20T10:00:57.797Z,13896.00
2022-12-20T10:06:05.211Z,13680.00
2022-12-20T10:11:12.278Z,13788.00
2022-12-20T10:16:19.555Z,14544.00
2022-12-20T10:21:26.634Z,15372.00
2022-12-20T10:26:33.905Z,15084.00
2022-12-20T10:31:41.121Z,16164.00
2022-12-20T10:36:48.206Z,16380.00
2022-12-20T10:41:55.546Z,16020.00
2022-12-20T10:47:02.759Z,14940.00
2022-12-20T10:52:09.893Z,14148.00
2022-12-20T10:57:17.080Z,12420.00
2022-12-20T11:02:24.466Z,12780.00
2022-12-20T11:07:31.491Z,12816.00
2022-12-20T11:12:38.691Z,12384.00
2022-12-20T11:17:45.875Z,12888.00
2022-12-20T11:22:53.120Z,13716.00
2022-12-20T11:28:00.340Z,13896.00
2022-12-20T11:33:07.519Z,14796.00
2022-12-20T11:38:14.808Z,15516.00
2022-12-20T11:43:22.069Z,17352.00
2022-12-20T11:48:29.237Z,18396.00
2022-12-20T11:53:36.432Z,19440.00
2022-12-20T11:58:43.688Z,19512.00
2022-12-20T12:03:50.849Z,17244.00
2022-12-20T12:08:58.084Z,10980.00
2022-12-20T12:14:05.286Z,10980.00
2022-12-20T12:19:12.715Z,13716.00
2022-12-20T12:24:19.633Z,16668.00
2022-12-20T12:29:26.878Z,17064.00
2022-12-20T12:34:34.082Z,14976.00
2022-12-20T12:39:41.300Z,18612.00
2022-12-20T12:44:48.521Z,13320.00
2022-12-20T12:49:55.671Z,11376.00
2022-12-20T12:55:02.840Z,12060.00
2022-12-20T13:00:10.027Z,13104.00
2022-12-20T13:05:23.990Z,12816.00
2022-12-20T13:10:24.603Z,12816.00
2022-12-20T13:15:31.862Z,12780.00
2022-12-20T13:20:39.034Z,13068.00
2022-12-20T13:25:46.216Z,13032.00
2022-12-20T13:30:53.536Z,12528.00
2022-12-20T13:36:00.630Z,12312.00
2022-12-20T13:41:07.887Z,12204.00
2022-12-20T13:46:15.104Z,10872.00
2022-12-20T13:51:22.300Z,12348.00
2022-12-20T13:56:29.719Z,11700.00
2022-12-20T14:01:37.135Z,9396.00
2022-12-20T14:06:44.161Z,7884.00
2022-12-20T14:11:51.369Z,7416.00
2022-12-20T14:16:58.826Z,6948.00
2022-12-20T14:22:05.765Z,6732.00
2022-12-20T14:27:12.978Z,7632.00
2022-12-20T14:32:20.220Z,8388.00
2022-12-20T14:37:27.386Z,6984.00
2022-12-20T14:42:34.553Z,5400.00
2022-12-20T14:47:41.812Z,4176.00
2022-12-20T14:52:49.050Z,3312.00
2022-12-20T14:57:56.242Z,2988.00
2022-12-20T15:03:03.749Z,2412.00
2022-12-20T15:08:10.670Z,1836.00
2022-12-20T15:13:17.935Z,1404.00
2022-12-20T15:18:25.170Z,936.00
2022-12-20T15:23:32.382Z,756.00
2022-12-20T15:28:39.559Z,612.00
2022-12-20T15:33:46.858Z,504.00
2022-12-20T15:39:12.150Z,396.00
2022-12-20T15:44:01.355Z,216.00
2022-12-20T15:49:08.652Z,72.00
2022-12-20T15:54:15.890Z,0.00
2022-12-20T16:04:30.540Z,-72.00
2022-12-20T16:09:37.667Z,-72.00
2022-12-20T16:14:44.938Z,1908.00
2022-12-20T16:19:52.700Z,2052.00
2022-12-20T16:24:59.845Z,-72.00
2022-12-20T16:30:07.075Z,-72.00
2022-12-20T16:35:14.308Z,-72.00
2022-12-20T16:40:21.466Z,-72.00
2022-12-20T16:45:28.657Z,-36.00
2022-12-20T16:50:35.855Z,-72.00
2022-12-20T16:55:43.030Z,-36.00
2022-12-20T17:00:50.322Z,-36.00
2022-12-20T17:05:57.492Z,-36.00
2022-12-20T17:11:04.690Z,-72.00
2022-12-20T17:16:11.924Z,-36.00
2022-12-20T17:21:19.095Z,-72.00
2022-12-20T17:26:26.225Z,-72.00
2022-12-20T17:31:33.535Z,-72.00
2022-12-20T17:36:40.701Z,-72.00
2022-12-20T17:41:47.925Z,-72.00
2022-12-20T17:46:55.081Z,-72.00
2022-12-20T17:52:02.316Z,-72.00
2022-12-20T17:57:09.457Z,-72.00
2022-12-20T18:02:16.837Z,-36.00
2022-12-20T18:07:23.840Z,-72.00
2022-12-20T18:12:35.731Z,-72.00
2022-12-20T18:17:38.293Z,-36.00
2022-12-20T18:22:45.483Z,-72.00
2022-12-20T18:27:52.925Z,-72.00
2022-12-20T18:33:00.134Z,-36.00
2022-12-20T18:38:07.317Z,-72.00
2022-12-20T18:43:14.844Z,-72.00
2022-12-20T18:48:22.461Z,-72.00
2022-12-20T18:53:29.810Z,-72.00
2022-12-20T18:58:37.270Z,-72.00
2022-12-20T19:03:44.590Z,-72.00
2022-12-20T19:08:52.007Z,-72.00
2022-12-20T19:13:59.603Z,-72.00
2022-12-20T19:19:06.971Z,-72.00
2022-12-20T19:24:14.264Z,-72.00
2022-12-20T19:29:21.570Z,360.00
2022-12-20T19:34:28.971Z,360.00
2022-12-20T19:39:36.270Z,360.00
2022-12-20T19:44:43.471Z,360.00
2022-12-20T19:49:50.896Z,396.00
2022-12-20T19:54:58.494Z,360.00
2022-12-20T20:00:06.091Z,0.00
2022-12-20T20:05:15.376Z,0.00
2022-12-20T20:10:20.628Z,1440.00
2022-12-20T20:15:28.178Z,10080.00
2022-12-20T20:20:35.538Z,9936.00
2022-12-20T20:25:43.051Z,9864.00
2022-12-20T20:30:50.663Z,9936.00
2022-12-20T20:35:58.006Z,9972.00
2022-12-20T20:41:05.315Z,9720.00
2022-12-20T20:46:12.575Z,9900.00
2022-12-20T20:51:19.699Z,9828.00
2022-12-20T20:56:27.026Z,9864.00
2022-12-20T21:01:34.423Z,9756.00
2022-12-20T21:06:42.159Z,9828.00
2022-12-20T21:11:48.846Z,9828.00
2022-12-20T21:16:55.913Z,9828.00
2022-12-20T21:22:03.101Z,9792.00
2022-12-20T21:27:10.437Z,9828.00
2022-12-20T21:32:17.574Z,9720.00
2022-12-20T21:37:24.729Z,9864.00
2022-12-20T21:42:31.971Z,9684.00
2022-12-20T21:47:39.174Z,9504.00
2022-12-20T21:52:46.438Z,9648.00
2022-12-20T21:57:53.678Z,9504.00
2022-12-20T22:03:00.978Z,9684.00
2022-12-20T22:08:08.146Z,9540.00
2022-12-20T22:13:15.393Z,9576.00
2022-12-20T22:18:22.621Z,9612.00
2022-12-20T22:23:29.876Z,9648.00
2022-12-20T22:28:37.198Z,9648.00
2022-12-20T22:33:44.408Z,9684.00
2022-12-20T22:38:51.581Z,9468.00
2022-12-20T22:43:58.852Z,9324.00
2022-12-20T22:49:05.995Z,9360.00
2022-12-20T22:54:13.200Z,9288.00
2022-12-20T22:59:20.412Z,9360.00
2022-12-20T23:04:27.587Z,9324.00
2022-12-20T23:09:34.794Z,9324.00
2022-12-20T23:14:42.078Z,9396.00
2022-12-20T23:19:49.200Z,9396.00
2022-12-20T23:24:56.353Z,9432.00
2022-12-20T23:30:03.555Z,9432.00
2022-12-20T23:35:12.829Z,9396.00
2022-12-20T23:40:18.025Z,9540.00
2022-12-20T23:45:25.212Z,9468.00
2022-12-20T23:50:32.331Z,9396.00
2022-12-20T23:55:39.530Z,9432.00
